Sea Voyager — V7QU2 — position and weather

sailwx.info

Track history (hours):
 
Tides and Currents Weather Stations Pressure Air Temp Water Temp Dewpoint Dewpoint Depression Visibility Wind Speed Wind Dir Waves Ship Positions

Sea Voyager

Last reported at 2016-Apr-26 13:33 UTC. Time now 2016-Apr-30 11:14 UTC.
Position N 48°20' W 126°15'.

Length 243 m; draft 8.5 m.

Type: Ship (hazmat cat A). MMSI: 538003439.

Date/timePositionNaut miles runAvg speedWind from/ knotsBaromVisibWave heightAir tempDewpointWater temp
2016-Apr-26 13:33N 48°20' W 126°15'1111.4
2016-Apr-26 12:33N 48°26' W 126°00'1 0.8
2016-Apr-26 11:09N 48°27' W 125°60'2 1.0
2016-Apr-26 09:33N 48°28' W 126°02'2 1.1
2016-Apr-26 07:33N 48°29' W 126°05'2 1.0
2016-Apr-26 05:18N 48°31' W 126°07'6 8.4
2016-Apr-26 04:33N 48°31' W 125°58'1111.3
2016-Apr-26 03:33N 48°31' W 125°41'1110.7
2016-Apr-26 02:33N 48°31' W 125°25'1110.3
2016-Apr-26 01:31N 48°31' W 125°09'6410.7
2016-Apr-25 19:33N 48°16' W 123°35'1111.0
2016-Apr-25 18:33N 48°09' W 123°22'1212.2
2016-Apr-25 17:33N 48°19' W 123°13'1514.8
2016-Apr-25 16:34N 48°34' W 123°13'1211.7
2016-Apr-25 15:34N 48°45' W 123°07'1313.4
2016-Apr-25 14:34N 48°52' W 122°50'3 0.1
2016-Apr-24 10:31N 48°52' W 122°46'0 0.0
2016-Apr-24 00:25N 48°52' W 122°46'2 1.9
2016-Apr-23 23:33N 48°50' W 122°47'1111.3
2016-Apr-23 22:33N 48°39' W 122°43'1111.2
2016-Apr-23 21:33N 48°28' W 122°45'1110.6
2016-Apr-23 20:33N 48°21' W 122°56'1313.1
2016-Apr-23 19:33N 48°13' W 123°12'1010.1
2016-Apr-23 18:33N 48°08' W 123°25'0 0.1
2016-Apr-23 17:32N 48°08' W 123°25'0 0.1
2016-Apr-23 16:32N 48°08' W 123°25'0 0.1
2016-Apr-23 15:32N 48°08' W 123°25'0 0.0
2016-Apr-23 14:26N 48°08' W 123°25'0 0.1
2016-Apr-23 13:32N 48°08' W 123°25'0 0.0
2016-Apr-23 12:14N 48°08' W 123°25'0 0.0
2016-Apr-23 11:20N 48°08' W 123°25'0 0.1
2016-Apr-23 10:32N 48°08' W 123°25'0 0.1
2016-Apr-23 09:29N 48°08' W 123°25'0 0.1
2016-Apr-23 08:32N 48°08' W 123°25'0 0.1
2016-Apr-23 07:26N 48°08' W 123°25'0 0.1
2016-Apr-23 06:32N 48°08' W 123°25'0 0.1
2016-Apr-23 05:32N 48°08' W 123°25'0 0.0
2016-Apr-23 04:26N 48°08' W 123°25'0 0.0
2016-Apr-23 03:29N 48°08' W 123°25'0 0.0
2016-Apr-23 02:32N 48°08' W 123°25'0 0.0
2016-Apr-23 01:20N 48°08' W 123°25'0 0.0
2016-Apr-23 00:32N 48°08' W 123°25'0 0.0
2016-Apr-22 23:32N 48°08' W 123°25'0 0.0
2016-Apr-22 22:32N 48°08' W 123°25'0 0.2
2016-Apr-22 21:17N 48°08' W 123°25'0 0.1
2016-Apr-22 20:32N 48°08' W 123°25'0 0.0
2016-Apr-22 19:32N 48°08' W 123°25'0 0.2
2016-Apr-22 18:32N 48°08' W 123°25'0 0.0
2016-Apr-22 17:29N 48°08' W 123°25'0 0.1
2016-Apr-22 16:29N 48°08' W 123°25'0 0.0
2016-Apr-22 15:32N 48°08' W 123°25'0 0.0
2016-Apr-22 14:29N 48°08' W 123°25'0 0.0
2016-Apr-22 13:32N 48°08' W 123°25'0 0.1
2016-Apr-22 12:32N 48°08' W 123°25'0 0.2
2016-Apr-22 11:26N 48°08' W 123°25'0 0.0
2016-Apr-22 10:32N 48°08' W 123°25'0 0.0
2016-Apr-22 09:32N 48°08' W 123°25'0 0.0
2016-Apr-22 08:17N 48°08' W 123°25'0 0.2
2016-Apr-22 07:32N 48°08' W 123°25'0 0.1
2016-Apr-22 06:32N 48°08' W 123°25'0 0.0
2016-Apr-22 05:32N 48°08' W 123°25'0 0.0
2016-Apr-22 04:32N 48°08' W 123°25'0 0.0
2016-Apr-22 03:26N 48°08' W 123°25'0 0.0
2016-Apr-22 02:32N 48°08' W 123°25'0 0.1
2016-Apr-22 01:32N 48°08' W 123°25'0 0.0
2016-Apr-22 00:29N 48°08' W 123°25'0 0.2
2016-Apr-21 23:17N 48°08' W 123°25'0 0.2
2016-Apr-21 22:32N 48°08' W 123°25'0 0.0
2016-Apr-21 21:32N 48°08' W 123°25'0 0.0
2016-Apr-21 20:32N 48°08' W 123°25'0 0.0
2016-Apr-21 19:32N 48°08' W 123°25'0 0.0
2016-Apr-21 18:32N 48°08' W 123°25'0 0.1
2016-Apr-21 17:26N 48°08' W 123°25'0 0.2
2016-Apr-21 16:32N 48°08' W 123°25'0 0.1
2016-Apr-21 15:32N 48°08' W 123°25'0 0.0
2016-Apr-21 14:32N 48°08' W 123°25'0 0.0
2016-Apr-21 13:23N 48°08' W 123°25'0 0.1
2016-Apr-21 12:26N 48°08' W 123°25'0 0.0
2016-Apr-21 11:32N 48°08' W 123°25'0 0.0
2016-Apr-21 10:32N 48°08' W 123°25'0 0.0
2016-Apr-21 09:23N 48°08' W 123°25'0 0.0
2016-Apr-21 08:32N 48°08' W 123°25'0 0.0
2016-Apr-21 07:32N 48°08' W 123°25'0 0.0
2016-Apr-21 06:29N 48°08' W 123°25'0 0.0
2016-Apr-21 05:32N 48°08' W 123°25'0 0.0
2016-Apr-21 04:32N 48°08' W 123°25'0 0.0
2016-Apr-21 03:32N 48°08' W 123°25'0 0.1
2016-Apr-21 02:32N 48°08' W 123°25'0 0.1
2016-Apr-21 01:17N 48°08' W 123°25'0 0.0
2016-Apr-21 00:29N 48°08' W 123°25'0 0.1
2016-Apr-20 23:32N 48°08' W 123°25'0 0.1
2016-Apr-20 22:29N 48°08' W 123°25'0 0.2
2016-Apr-20 21:29N 48°08' W 123°25'0 0.1
2016-Apr-20 20:29N 48°08' W 123°25'0 0.0
2016-Apr-20 19:32N 48°08' W 123°25'0 0.0
2016-Apr-20 18:23N 48°08' W 123°25'0 0.0
2016-Apr-20 17:29N 48°08' W 123°25'0 0.1
2016-Apr-20 16:29N 48°08' W 123°25'0 0.1
2016-Apr-20 15:29N 48°08' W 123°25'0 0.0
2016-Apr-20 14:23N 48°08' W 123°25'0 0.0
2016-Apr-20 13:32N 48°08' W 123°25'0 0.0
2016-Apr-20 12:26N 48°08' W 123°25'0 0.0
2016-Apr-20 11:26N 48°08' W 123°25'0 0.0
2016-Apr-20 10:32N 48°08' W 123°25'0 0.1
2016-Apr-20 09:29N 48°08' W 123°25'0 0.1
2016-Apr-20 08:32N 48°08' W 123°25'0 0.1
2016-Apr-20 07:32N 48°08' W 123°25'0 0.1
2016-Apr-20 06:26N 48°08' W 123°25'0 0.0
2016-Apr-20 05:29N 48°08' W 123°25'0 0.0
2016-Apr-20 04:32N 48°08' W 123°25'0 0.0
2016-Apr-20 03:26N 48°08' W 123°25'0 0.0
2016-Apr-20 02:32N 48°08' W 123°25'0 0.1
2016-Apr-20 01:32N 48°08' W 123°25'0 0.1
2016-Apr-20 00:32N 48°08' W 123°25'0 0.0
2016-Apr-19 23:23N 48°08' W 123°25'0 0.0
2016-Apr-19 22:29N 48°08' W 123°25'0 0.2
2016-Apr-19 21:32N 48°08' W 123°25'0 0.1
2016-Apr-19 20:32N 48°08' W 123°25'0 0.0
2016-Apr-19 19:32N 48°08' W 123°25'0 0.0
2016-Apr-19 18:32N 48°08' W 123°25'0 0.0
2016-Apr-19 17:29N 48°08' W 123°25'0 0.2
2016-Apr-19 16:32N 48°08' W 123°25'0 0.1
2016-Apr-19 15:29N 48°08' W 123°25'0 0.1
2016-Apr-19 14:26N 48°08' W 123°25'0 0.0
2016-Apr-19 13:29N 48°08' W 123°25'0 0.0
2016-Apr-19 12:26N 48°08' W 123°25'0 0.0
2016-Apr-19 11:32N 48°08' W 123°25'0 0.0
2016-Apr-19 10:32N 48°08' W 123°25'0 0.1
2016-Apr-19 09:23N 48°08' W 123°25'0 0.1
2016-Apr-19 08:23N 48°08' W 123°25'0 0.1
2016-Apr-19 07:32N 48°08' W 123°25'0 0.1
2016-Apr-19 06:32N 48°08' W 123°25'0 0.1
2016-Apr-19 05:23N 48°08' W 123°25'0 0.0
2016-Apr-19 04:32N 48°08' W 123°25'0 0.0
2016-Apr-19 03:32N 48°08' W 123°25'0 0.1
2016-Apr-19 02:29N 48°08' W 123°25'0 0.0
2016-Apr-19 01:23N 48°08' W 123°25'0 0.0
2016-Apr-19 00:32N 48°08' W 123°25'0 0.0
2016-Apr-18 23:32N 48°08' W 123°25'0 0.1
2016-Apr-18 22:29N 48°08' W 123°25'0 0.1
2016-Apr-18 21:32N 48°08' W 123°25'0 0.0
2016-Apr-18 20:23N 48°08' W 123°25'0 0.0
2016-Apr-18 19:32N 48°08' W 123°25'0 0.1
2016-Apr-18 18:32N 48°08' W 123°25'0 0.1
2016-Apr-18 17:32N 48°08' W 123°25'0 0.2
2016-Apr-18 16:32N 48°08' W 123°25'0 0.1
2016-Apr-18 15:29N 48°08' W 123°25'0 0.0
2016-Apr-18 14:29N 48°08' W 123°25'0 0.1
2016-Apr-18 13:29N 48°08' W 123°25'0 0.0
2016-Apr-18 12:32N 48°08' W 123°25'0 0.1
2016-Apr-18 11:29N 48°08' W 123°25'0 0.1
2016-Apr-18 10:29N 48°08' W 123°25'0 0.0
2016-Apr-18 09:32N 48°08' W 123°25'0 0.0
2016-Apr-18 08:32N 48°08' W 123°25'0 0.1
2016-Apr-18 07:29N 48°08' W 123°25'0 0.1
2016-Apr-18 06:33N 48°08' W 123°25'0 0.0
2016-Apr-18 05:32N 48°08' W 123°25'0 0.2
2016-Apr-18 04:32N 48°08' W 123°25'0 0.0
2016-Apr-18 03:30N 48°08' W 123°25'0 0.0
2016-Apr-18 02:33N 48°08' W 123°25'0 0.0
2016-Apr-18 01:29N 48°08' W 123°25'0 0.0
2016-Apr-18 00:32N 48°08' W 123°25'0 0.0
2016-Apr-17 23:32N 48°08' W 123°25'0 0.1
2016-Apr-17 22:32N 48°08' W 123°25'0 0.0
2016-Apr-17 21:31N 48°08' W 123°25'0 0.0
2016-Apr-17 20:32N 48°08' W 123°25'0 0.0
2016-Apr-17 19:32N 48°08' W 123°25'0 0.0
2016-Apr-17 18:32N 48°08' W 123°25'0 0.1
2016-Apr-17 17:29N 48°08' W 123°25'0 0.1
2016-Apr-17 16:32N 48°08' W 123°25'0 0.1
2016-Apr-17 14:32N 48°08' W 123°25'0 0.1
2016-Apr-17 13:32N 48°08' W 123°25'0 0.1
2016-Apr-17 12:26N 48°08' W 123°25'0 0.0
2016-Apr-17 11:32N 48°08' W 123°25'0 0.0
2016-Apr-17 10:32N 48°08' W 123°25'0 0.0
2016-Apr-17 09:32N 48°08' W 123°25'0 0.1
2016-Apr-17 08:32N 48°08' W 123°25'0 0.1
2016-Apr-17 07:32N 48°08' W 123°25'0 0.0
2016-Apr-17 06:32N 48°08' W 123°25'0 0.0
2016-Apr-17 05:29N 48°08' W 123°25'0 0.0
2016-Apr-17 04:32N 48°08' W 123°25'0 0.0
2016-Apr-17 03:33N 48°08' W 123°25'0 0.1
2016-Apr-17 02:32N 48°08' W 123°25'0 0.2
2016-Apr-17 01:32N 48°08' W 123°25'0 0.1
2016-Apr-17 00:32N 48°08' W 123°25'1 1.2
2016-Apr-16 23:33N 48°08' W 123°23'3 3.1
2016-Apr-16 22:33N 48°11' W 123°26'8 7.6
2016-Apr-16 21:33N 48°13' W 123°37'1414.2
2016-Apr-16 20:33N 48°14' W 123°58'4412.8
2016-Apr-16 17:06N 48°29' W 125°01'913.8
2016-Apr-16 16:29N 48°29' W 125°14'1213.3
2016-Apr-16 15:33N 48°29' W 125°32'7 6.9
2016-Apr-16 14:33N 48°29' W 125°43'1313.1
2016-Apr-16 13:33N 48°29' W 126°03'  
Track history (hours):
 
Tides and Currents Weather Stations Pressure Air Temp Water Temp Dewpoint Dewpoint Depression Visibility Wind Speed Wind Dir Waves Ship Positions

Sea Voyager

Last reported at 2016-Apr-26 13:33 UTC. Time now 2016-Apr-30 11:14 UTC.
Position N 48°20' W 126°15'.

Length 243 m; draft 8.5 m.

Type: Ship (hazmat cat A). MMSI: 538003439.

Date/timePositionNaut miles runAvg speedWind from/ knotsBaromVisibWave heightAir tempDewpointWater temp
2016-Apr-26 13:33N 48°20' W 126°15'1111.4
2016-Apr-26 12:33N 48°26' W 126°00'1 0.8
2016-Apr-26 11:09N 48°27' W 125°60'2 1.0
2016-Apr-26 09:33N 48°28' W 126°02'2 1.1
2016-Apr-26 07:33N 48°29' W 126°05'2 1.0
2016-Apr-26 05:18N 48°31' W 126°07'6 8.4
2016-Apr-26 04:33N 48°31' W 125°58'1111.3
2016-Apr-26 03:33N 48°31' W 125°41'1110.7
2016-Apr-26 02:33N 48°31' W 125°25'1110.3
2016-Apr-26 01:31N 48°31' W 125°09'6410.7
2016-Apr-25 19:33N 48°16' W 123°35'1111.0
2016-Apr-25 18:33N 48°09' W 123°22'1212.2
2016-Apr-25 17:33N 48°19' W 123°13'1514.8
2016-Apr-25 16:34N 48°34' W 123°13'1211.7
2016-Apr-25 15:34N 48°45' W 123°07'1313.4
2016-Apr-25 14:34N 48°52' W 122°50'3 0.1
2016-Apr-24 10:31N 48°52' W 122°46'0 0.0
2016-Apr-24 00:25N 48°52' W 122°46'2 1.9
2016-Apr-23 23:33N 48°50' W 122°47'1111.3
2016-Apr-23 22:33N 48°39' W 122°43'1111.2
2016-Apr-23 21:33N 48°28' W 122°45'1110.6
2016-Apr-23 20:33N 48°21' W 122°56'1313.1
2016-Apr-23 19:33N 48°13' W 123°12'1010.1
2016-Apr-23 18:33N 48°08' W 123°25'0 0.1
2016-Apr-23 17:32N 48°08' W 123°25'0 0.1
2016-Apr-23 16:32N 48°08' W 123°25'0 0.1
2016-Apr-23 15:32N 48°08' W 123°25'0 0.0
2016-Apr-23 14:26N 48°08' W 123°25'0 0.1
2016-Apr-23 13:32N 48°08' W 123°25'0 0.0
2016-Apr-23 12:14N 48°08' W 123°25'0 0.0
2016-Apr-23 11:20N 48°08' W 123°25'0 0.1
2016-Apr-23 10:32N 48°08' W 123°25'0 0.1
2016-Apr-23 09:29N 48°08' W 123°25'0 0.1
2016-Apr-23 08:32N 48°08' W 123°25'0 0.1
2016-Apr-23 07:26N 48°08' W 123°25'0 0.1
2016-Apr-23 06:32N 48°08' W 123°25'0 0.1
2016-Apr-23 05:32N 48°08' W 123°25'0 0.0
2016-Apr-23 04:26N 48°08' W 123°25'0 0.0
2016-Apr-23 03:29N 48°08' W 123°25'0 0.0
2016-Apr-23 02:32N 48°08' W 123°25'0 0.0
2016-Apr-23 01:20N 48°08' W 123°25'0 0.0
2016-Apr-23 00:32N 48°08' W 123°25'0 0.0
2016-Apr-22 23:32N 48°08' W 123°25'0 0.0
2016-Apr-22 22:32N 48°08' W 123°25'0 0.2
2016-Apr-22 21:17N 48°08' W 123°25'0 0.1
2016-Apr-22 20:32N 48°08' W 123°25'0 0.0
2016-Apr-22 19:32N 48°08' W 123°25'0 0.2
2016-Apr-22 18:32N 48°08' W 123°25'0 0.0
2016-Apr-22 17:29N 48°08' W 123°25'0 0.1
2016-Apr-22 16:29N 48°08' W 123°25'0 0.0
2016-Apr-22 15:32N 48°08' W 123°25'0 0.0
2016-Apr-22 14:29N 48°08' W 123°25'0 0.0
2016-Apr-22 13:32N 48°08' W 123°25'0 0.1
2016-Apr-22 12:32N 48°08' W 123°25'0 0.2
2016-Apr-22 11:26N 48°08' W 123°25'0 0.0
2016-Apr-22 10:32N 48°08' W 123°25'0 0.0
2016-Apr-22 09:32N 48°08' W 123°25'0 0.0
2016-Apr-22 08:17N 48°08' W 123°25'0 0.2
2016-Apr-22 07:32N 48°08' W 123°25'0 0.1
2016-Apr-22 06:32N 48°08' W 123°25'0 0.0
2016-Apr-22 05:32N 48°08' W 123°25'0 0.0
2016-Apr-22 04:32N 48°08' W 123°25'0 0.0
2016-Apr-22 03:26N 48°08' W 123°25'0 0.0
2016-Apr-22 02:32N 48°08' W 123°25'0 0.1
2016-Apr-22 01:32N 48°08' W 123°25'0 0.0
2016-Apr-22 00:29N 48°08' W 123°25'0 0.2
2016-Apr-21 23:17N 48°08' W 123°25'0 0.2
2016-Apr-21 22:32N 48°08' W 123°25'0 0.0
2016-Apr-21 21:32N 48°08' W 123°25'0 0.0
2016-Apr-21 20:32N 48°08' W 123°25'0 0.0
2016-Apr-21 19:32N 48°08' W 123°25'0 0.0
2016-Apr-21 18:32N 48°08' W 123°25'0 0.1
2016-Apr-21 17:26N 48°08' W 123°25'0 0.2
2016-Apr-21 16:32N 48°08' W 123°25'0 0.1
2016-Apr-21 15:32N 48°08' W 123°25'0 0.0
2016-Apr-21 14:32N 48°08' W 123°25'0 0.0
2016-Apr-21 13:23N 48°08' W 123°25'0 0.1
2016-Apr-21 12:26N 48°08' W 123°25'0 0.0
2016-Apr-21 11:32N 48°08' W 123°25'0 0.0
2016-Apr-21 10:32N 48°08' W 123°25'0 0.0
2016-Apr-21 09:23N 48°08' W 123°25'0 0.0
2016-Apr-21 08:32N 48°08' W 123°25'0 0.0
2016-Apr-21 07:32N 48°08' W 123°25'0 0.0
2016-Apr-21 06:29N 48°08' W 123°25'0 0.0
2016-Apr-21 05:32N 48°08' W 123°25'0 0.0
2016-Apr-21 04:32N 48°08' W 123°25'0 0.0
2016-Apr-21 03:32N 48°08' W 123°25'0 0.1
2016-Apr-21 02:32N 48°08' W 123°25'0 0.1
2016-Apr-21 01:17N 48°08' W 123°25'0 0.0
2016-Apr-21 00:29N 48°08' W 123°25'0 0.1
2016-Apr-20 23:32N 48°08' W 123°25'0 0.1
2016-Apr-20 22:29N 48°08' W 123°25'0 0.2
2016-Apr-20 21:29N 48°08' W 123°25'0 0.1
2016-Apr-20 20:29N 48°08' W 123°25'0 0.0
2016-Apr-20 19:32N 48°08' W 123°25'0 0.0
2016-Apr-20 18:23N 48°08' W 123°25'0 0.0
2016-Apr-20 17:29N 48°08' W 123°25'0 0.1
2016-Apr-20 16:29N 48°08' W 123°25'0 0.1
2016-Apr-20 15:29N 48°08' W 123°25'0 0.0
2016-Apr-20 14:23N 48°08' W 123°25'0 0.0
2016-Apr-20 13:32N 48°08' W 123°25'0 0.0
2016-Apr-20 12:26N 48°08' W 123°25'0 0.0
2016-Apr-20 11:26N 48°08' W 123°25'0 0.0
2016-Apr-20 10:32N 48°08' W 123°25'0 0.1
2016-Apr-20 09:29N 48°08' W 123°25'0 0.1
2016-Apr-20 08:32N 48°08' W 123°25'0 0.1
2016-Apr-20 07:32N 48°08' W 123°25'0 0.1
2016-Apr-20 06:26N 48°08' W 123°25'0 0.0
2016-Apr-20 05:29N 48°08' W 123°25'0 0.0
2016-Apr-20 04:32N 48°08' W 123°25'0 0.0
2016-Apr-20 03:26N 48°08' W 123°25'0 0.0
2016-Apr-20 02:32N 48°08' W 123°25'0 0.1
2016-Apr-20 01:32N 48°08' W 123°25'0 0.1
2016-Apr-20 00:32N 48°08' W 123°25'0 0.0
2016-Apr-19 23:23N 48°08' W 123°25'0 0.0
2016-Apr-19 22:29N 48°08' W 123°25'0 0.2
2016-Apr-19 21:32N 48°08' W 123°25'0 0.1
2016-Apr-19 20:32N 48°08' W 123°25'0 0.0
2016-Apr-19 19:32N 48°08' W 123°25'0 0.0
2016-Apr-19 18:32N 48°08' W 123°25'0 0.0
2016-Apr-19 17:29N 48°08' W 123°25'0 0.2
2016-Apr-19 16:32N 48°08' W 123°25'0 0.1
2016-Apr-19 15:29N 48°08' W 123°25'0 0.1
2016-Apr-19 14:26N 48°08' W 123°25'0 0.0
2016-Apr-19 13:29N 48°08' W 123°25'0 0.0
2016-Apr-19 12:26N 48°08' W 123°25'0 0.0
2016-Apr-19 11:32N 48°08' W 123°25'0 0.0
2016-Apr-19 10:32N 48°08' W 123°25'0 0.1
2016-Apr-19 09:23N 48°08' W 123°25'0 0.1
2016-Apr-19 08:23N 48°08' W 123°25'0 0.1
2016-Apr-19 07:32N 48°08' W 123°25'0 0.1
2016-Apr-19 06:32N 48°08' W 123°25'0 0.1
2016-Apr-19 05:23N 48°08' W 123°25'0 0.0
2016-Apr-19 04:32N 48°08' W 123°25'0 0.0
2016-Apr-19 03:32N 48°08' W 123°25'0 0.1
2016-Apr-19 02:29N 48°08' W 123°25'0 0.0
2016-Apr-19 01:23N 48°08' W 123°25'0 0.0
2016-Apr-19 00:32N 48°08' W 123°25'0 0.0
2016-Apr-18 23:32N 48°08' W 123°25'0 0.1
2016-Apr-18 22:29N 48°08' W 123°25'0 0.1
2016-Apr-18 21:32N 48°08' W 123°25'0 0.0
2016-Apr-18 20:23N 48°08' W 123°25'0 0.0
2016-Apr-18 19:32N 48°08' W 123°25'0 0.1
2016-Apr-18 18:32N 48°08' W 123°25'0 0.1
2016-Apr-18 17:32N 48°08' W 123°25'0 0.2
2016-Apr-18 16:32N 48°08' W 123°25'0 0.1
2016-Apr-18 15:29N 48°08' W 123°25'0 0.0
2016-Apr-18 14:29N 48°08' W 123°25'0 0.1
2016-Apr-18 13:29N 48°08' W 123°25'0 0.0
2016-Apr-18 12:32N 48°08' W 123°25'0 0.1
2016-Apr-18 11:29N 48°08' W 123°25'0 0.1
2016-Apr-18 10:29N 48°08' W 123°25'0 0.0
2016-Apr-18 09:32N 48°08' W 123°25'0 0.0
2016-Apr-18 08:32N 48°08' W 123°25'0 0.1
2016-Apr-18 07:29N 48°08' W 123°25'0 0.1
2016-Apr-18 06:33N 48°08' W 123°25'0 0.0
2016-Apr-18 05:32N 48°08' W 123°25'0 0.2
2016-Apr-18 04:32N 48°08' W 123°25'0 0.0
2016-Apr-18 03:30N 48°08' W 123°25'0 0.0
2016-Apr-18 02:33N 48°08' W 123°25'0 0.0
2016-Apr-18 01:29N 48°08' W 123°25'0 0.0
2016-Apr-18 00:32N 48°08' W 123°25'0 0.0
2016-Apr-17 23:32N 48°08' W 123°25'0 0.1
2016-Apr-17 22:32N 48°08' W 123°25'0 0.0
2016-Apr-17 21:31N 48°08' W 123°25'0 0.0
2016-Apr-17 20:32N 48°08' W 123°25'0 0.0
2016-Apr-17 19:32N 48°08' W 123°25'0 0.0
2016-Apr-17 18:32N 48°08' W 123°25'0 0.1
2016-Apr-17 17:29N 48°08' W 123°25'0 0.1
2016-Apr-17 16:32N 48°08' W 123°25'0 0.1
2016-Apr-17 14:32N 48°08' W 123°25'0 0.1
2016-Apr-17 13:32N 48°08' W 123°25'0 0.1
2016-Apr-17 12:26N 48°08' W 123°25'0 0.0
2016-Apr-17 11:32N 48°08' W 123°25'0 0.0
2016-Apr-17 10:32N 48°08' W 123°25'0 0.0
2016-Apr-17 09:32N 48°08' W 123°25'0 0.1
2016-Apr-17 08:32N 48°08' W 123°25'0 0.1
2016-Apr-17 07:32N 48°08' W 123°25'0 0.0
2016-Apr-17 06:32N 48°08' W 123°25'0 0.0
2016-Apr-17 05:29N 48°08' W 123°25'0 0.0
2016-Apr-17 04:32N 48°08' W 123°25'0 0.0
2016-Apr-17 03:33N 48°08' W 123°25'0 0.1
2016-Apr-17 02:32N 48°08' W 123°25'0 0.2
2016-Apr-17 01:32N 48°08' W 123°25'0 0.1
2016-Apr-17 00:32N 48°08' W 123°25'1 1.2
2016-Apr-16 23:33N 48°08' W 123°23'3 3.1
2016-Apr-16 22:33N 48°11' W 123°26'8 7.6
2016-Apr-16 21:33N 48°13' W 123°37'1414.2
2016-Apr-16 20:33N 48°14' W 123°58'4412.8
2016-Apr-16 17:06N 48°29' W 125°01'913.8
2016-Apr-16 16:29N 48°29' W 125°14'1213.3
2016-Apr-16 15:33N 48°29' W 125°32'7 6.9
2016-Apr-16 14:33N 48°29' W 125°43'1313.1
2016-Apr-16 13:33N 48°29' W 126°03'  

Dump ship's entire track history